MMPA

El Tajín National Airport

Airport
ICAO code
MMPA
IATA Code
PAZ
Summary
ICAO Region
CARSAM
ICAO Territory
Location

Tihuatlán Municipality, Veracruz-Llave

Serving
Poza Rico
Elevation
497 ft
Coordinates
20° 36' 10" N , 97° 27' 39" W
Metar
MMPA 221940Z 00000KT 4SM BKN300 38/28 A2975 RMK 8/008 HZY

Runways

Designator Length Width Surface Rops
8/26 1800 45 ASP No/No

Airport map

Aerial View

SKYbrary Partners:

Safety knowledge contributed by: